Airport details for: LGKF (Greece)

Metar

LGKF 151750Z 16009KT 9999 SCT016 SCT020 BKN070 17/16 Q1014

General details

ICAO: LGKF
IATA: EFL
Name (city): Kefallinia
Major:
Country: Greece
vACC: Hellenic vACC
Description:

Cephalonia International Airport (IATA: EFL, ICAO: LGKF) is an airport on the island of Cephalonia, in Greece.

The airport opened in 1971 to serve the former municipality Leivathos with improved transportation links; Cephalonia is now a single municipality. A new runway and the current terminal building were constructed in the 1980s.

Scenery links:
FS9 scenery:
FSX/P3D scenery: Download
XP scenery:
Elevation: 59 ft.
Transition altitude: 8000 ft.
MSA: 7900 ft.
Latitude: 38.12
Longitude: 20.500556
LGKF Charts
LGKF Notams
LGKF Online stations

Runways

Number Course Length Elevation Lat Lon ILS ILS freq ILS FAC GP
14 143° 7992ft / 2436 m 32ft 38.1291 20.492803 - - 3.0°
32 323° 7992ft / 2436 m 50ft 38.112936 20.50647 - - 3.0°